<?xml version="1.0" encoding="UTF-8" standalone="no" ?>
<gpx xmlns="http://www.topografix.com/GPX/1/1" xmlns:xsi="http://www.w3.org/2001/XMLSchema-instance" xsi:schemaLocation="http://www.topografix.com/GPX/1/1 http://www.topografix.com/GPX/1/1/gpx.xsd" version="1.1" creator="VisuGPX - https://www.visugpx.com">
  <metadata>
    <name>Boucle Noire GR412 2020</name>
  </metadata>
  <trk>
    <name><![CDATA[Boucle Noire GR412 2020]]></name>
    <trkseg>
      <trkpt lat="50.40568" lon="4.43855">
        <ele>100.764</ele>
        <time>2020-02-03T08:57:41Z</time>
      </trkpt>
      <trkpt lat="50.40577" lon="4.43858">
        <ele>100.906</ele>
        <time>2020-02-03T08:59:17Z</time>
      </trkpt>
      <trkpt lat="50.40602" lon="4.43688">
        <ele>99.316</ele>
        <time>2020-02-03T09:01:00Z</time>
      </trkpt>
      <trkpt lat="50.40621" lon="4.43554">
        <ele>100.008</ele>
        <time>2020-02-03T09:02:50Z</time>
      </trkpt>
      <trkpt lat="50.40627" lon="4.43376">
        <ele>98.05</ele>
        <time>2020-02-03T09:04:44Z</time>
      </trkpt>
      <trkpt lat="50.40674" lon="4.43239">
        <ele>97.875</ele>
        <time>2020-02-03T09:06:28Z</time>
      </trkpt>
      <trkpt lat="50.4076" lon="4.43081">
        <ele>100.012</ele>
        <time>2020-02-03T09:09:17Z</time>
      </trkpt>
      <trkpt lat="50.4082" lon="4.43001">
        <ele>103.593</ele>
        <time>2020-02-03T09:10:42Z</time>
      </trkpt>
      <trkpt lat="50.40917" lon="4.42848">
        <ele>102.547</ele>
        <time>2020-02-03T09:12:20Z</time>
      </trkpt>
      <trkpt lat="50.40971" lon="4.42739">
        <ele>101.695</ele>
        <time>2020-07-26T01:54:52Z</time>
      </trkpt>
      <trkpt lat="50.40996" lon="4.42698">
        <ele>103.113</ele>
        <time>2020-02-03T09:15:00Z</time>
      </trkpt>
      <trkpt lat="50.41038" lon="4.426">
        <ele>99.646</ele>
        <time>2020-02-03T09:18:00Z</time>
      </trkpt>
      <trkpt lat="50.41076" lon="4.4244">
        <ele>96.952</ele>
        <time>2020-02-03T09:19:35Z</time>
      </trkpt>
      <trkpt lat="50.41106" lon="4.42276">
        <ele>99.053</ele>
        <time>2020-02-03T09:21:06Z</time>
      </trkpt>
      <trkpt lat="50.41129" lon="4.42175">
        <ele>97.708</ele>
        <time>2020-02-03T09:22:29Z</time>
      </trkpt>
      <trkpt lat="50.41134" lon="4.42116">
        <ele>98.208</ele>
        <time>2020-07-26T01:58:52Z</time>
      </trkpt>
      <trkpt lat="50.41147" lon="4.41958">
        <ele>100.749</ele>
        <time>2020-02-03T09:24:14Z</time>
      </trkpt>
      <trkpt lat="50.41121" lon="4.41754">
        <ele>101.514</ele>
        <time>2020-02-03T09:25:57Z</time>
      </trkpt>
      <trkpt lat="50.41131" lon="4.41601">
        <ele>106.821</ele>
        <time>2020-02-03T09:27:39Z</time>
      </trkpt>
      <trkpt lat="50.41135" lon="4.41446">
        <ele>106.132</ele>
        <time>2020-02-03T09:29:02Z</time>
      </trkpt>
      <trkpt lat="50.41147" lon="4.41294">
        <ele>100.366</ele>
        <time>2020-02-03T09:30:24Z</time>
      </trkpt>
      <trkpt lat="50.41154" lon="4.41149">
        <ele>102.464</ele>
        <time>2020-02-03T09:31:40Z</time>
      </trkpt>
      <trkpt lat="50.41176" lon="4.40999">
        <ele>101.072</ele>
        <time>2020-02-03T09:33:03Z</time>
      </trkpt>
      <trkpt lat="50.4122" lon="4.40841">
        <ele>98.815</ele>
        <time>2020-02-03T09:34:30Z</time>
      </trkpt>
      <trkpt lat="50.4123" lon="4.40688">
        <ele>101.783</ele>
        <time>2020-02-03T09:36:02Z</time>
      </trkpt>
      <trkpt lat="50.41212" lon="4.40546">
        <ele>96.525</ele>
        <time>2020-02-03T09:37:22Z</time>
      </trkpt>
      <trkpt lat="50.41178" lon="4.40401">
        <ele>97.817</ele>
        <time>2020-02-03T09:38:48Z</time>
      </trkpt>
      <trkpt lat="50.41131" lon="4.40273">
        <ele>98.108</ele>
        <time>2020-02-03T09:40:11Z</time>
      </trkpt>
      <trkpt lat="50.41085" lon="4.40141">
        <ele>99.022</ele>
        <time>2020-02-03T09:41:34Z</time>
      </trkpt>
      <trkpt lat="50.41018" lon="4.40025">
        <ele>98.637</ele>
        <time>2020-02-03T09:42:57Z</time>
      </trkpt>
      <trkpt lat="50.40954" lon="4.39907">
        <ele>100.024</ele>
        <time>2020-02-03T09:44:58Z</time>
      </trkpt>
      <trkpt lat="50.40878" lon="4.39803">
        <ele>96.485</ele>
        <time>2020-02-03T09:46:19Z</time>
      </trkpt>
      <trkpt lat="50.40825" lon="4.39679">
        <ele>100.139</ele>
        <time>2020-02-03T09:47:38Z</time>
      </trkpt>
      <trkpt lat="50.40793" lon="4.39545">
        <ele>100.597</ele>
        <time>2020-02-03T09:48:59Z</time>
      </trkpt>
      <trkpt lat="50.40747" lon="4.39401">
        <ele>99.255</ele>
        <time>2020-02-03T09:50:25Z</time>
      </trkpt>
      <trkpt lat="50.40668" lon="4.39462">
        <ele>107.018</ele>
        <time>2020-02-03T09:52:53Z</time>
      </trkpt>
      <trkpt lat="50.40751" lon="4.39528">
        <ele>102.044</ele>
        <time>2020-02-03T09:54:43Z</time>
      </trkpt>
      <trkpt lat="50.40794" lon="4.39442">
        <ele>102.105</ele>
        <time>2020-02-03T09:56:22Z</time>
      </trkpt>
      <trkpt lat="50.40741" lon="4.39315">
        <ele>100.315</ele>
        <time>2020-02-03T09:58:00Z</time>
      </trkpt>
      <trkpt lat="50.40697" lon="4.39182">
        <ele>101.808</ele>
        <time>2020-02-03T09:59:23Z</time>
      </trkpt>
      <trkpt lat="50.40697" lon="4.39019">
        <ele>101.568</ele>
        <time>2020-02-03T10:01:03Z</time>
      </trkpt>
      <trkpt lat="50.40663" lon="4.38869">
        <ele>97.373</ele>
        <time>2020-02-03T10:02:28Z</time>
      </trkpt>
      <trkpt lat="50.40653" lon="4.3879">
        <ele>95.57</ele>
        <time>2020-07-26T02:16:52Z</time>
      </trkpt>
      <trkpt lat="50.40706" lon="4.38796">
        <ele>98.021</ele>
        <time>2020-02-03T10:03:50Z</time>
      </trkpt>
      <trkpt lat="50.40798" lon="4.3881">
        <ele>99.595</ele>
        <time>2020-02-03T10:05:12Z</time>
      </trkpt>
      <trkpt lat="50.40837" lon="4.38798">
        <ele>100.773</ele>
        <time>2020-07-26T02:18:52Z</time>
      </trkpt>
      <trkpt lat="50.40854" lon="4.38718">
        <ele>100.441</ele>
        <time>2020-02-03T10:06:35Z</time>
      </trkpt>
      <trkpt lat="50.40857" lon="4.38591">
        <ele>102.574</ele>
        <time>2020-07-26T02:20:12Z</time>
      </trkpt>
      <trkpt lat="50.40893" lon="4.38599">
        <ele>101.815</ele>
        <time>2020-02-03T10:08:16Z</time>
      </trkpt>
      <trkpt lat="50.4098" lon="4.38481">
        <ele>100.965</ele>
        <time>2020-02-03T10:10:51Z</time>
      </trkpt>
      <trkpt lat="50.41016" lon="4.38368">
        <ele>103.011</ele>
        <time>2020-07-26T02:22:12Z</time>
      </trkpt>
      <trkpt lat="50.41028" lon="4.38245">
        <ele>108.208</ele>
        <time>2020-02-03T10:12:34Z</time>
      </trkpt>
      <trkpt lat="50.41048" lon="4.38162">
        <ele>111.995</ele>
        <time>2020-02-03T10:17:59Z</time>
      </trkpt>
      <trkpt lat="50.41042" lon="4.38156">
        <ele>111.92</ele>
        <time>2020-02-03T10:22:40Z</time>
      </trkpt>
      <trkpt lat="50.41034" lon="4.38174">
        <ele>111.037</ele>
        <time>2020-02-03T10:32:52Z</time>
      </trkpt>
      <trkpt lat="50.41056" lon="4.38162">
        <ele>112.238</ele>
        <time>2020-02-03T10:36:21Z</time>
      </trkpt>
      <trkpt lat="50.41029" lon="4.38161">
        <ele>111.252</ele>
        <time>2020-02-03T10:38:35Z</time>
      </trkpt>
      <trkpt lat="50.41033" lon="4.38164">
        <ele>111.36</ele>
        <time>2020-02-03T10:44:36Z</time>
      </trkpt>
      <trkpt lat="50.41005" lon="4.38092">
        <ele>112.748</ele>
        <time>2020-02-03T10:49:11Z</time>
      </trkpt>
      <trkpt lat="50.40949" lon="4.38065">
        <ele>114.461</ele>
        <time>2020-07-26T02:28:12Z</time>
      </trkpt>
      <trkpt lat="50.40932" lon="4.38015">
        <ele>112.362</ele>
        <time>2020-07-26T02:28:52Z</time>
      </trkpt>
      <trkpt lat="50.40929" lon="4.37972">
        <ele>112.583</ele>
        <time>2020-02-03T10:50:49Z</time>
      </trkpt>
      <trkpt lat="50.40956" lon="4.37874">
        <ele>116.911</ele>
        <time>2020-07-26T02:30:12Z</time>
      </trkpt>
      <trkpt lat="50.40949" lon="4.3784">
        <ele>117.008</ele>
        <time>2020-07-26T02:30:52Z</time>
      </trkpt>
      <trkpt lat="50.40931" lon="4.37804">
        <ele>115.04</ele>
        <time>2020-02-03T10:52:39Z</time>
      </trkpt>
      <trkpt lat="50.40912" lon="4.37766">
        <ele>112.085</ele>
        <time>2020-07-26T02:32:12Z</time>
      </trkpt>
      <trkpt lat="50.40875" lon="4.37652">
        <ele>109.182</ele>
        <time>2020-02-03T10:54:12Z</time>
      </trkpt>
      <trkpt lat="50.40819" lon="4.3751">
        <ele>115.253</ele>
        <time>2020-02-03T10:55:46Z</time>
      </trkpt>
      <trkpt lat="50.40737" lon="4.37393">
        <ele>119.227</ele>
        <time>2020-02-03T10:57:30Z</time>
      </trkpt>
      <trkpt lat="50.40777" lon="4.37268">
        <ele>135.375</ele>
        <time>2020-02-03T11:00:06Z</time>
      </trkpt>
      <trkpt lat="50.40877" lon="4.37115">
        <ele>148.933</ele>
        <time>2020-02-03T11:02:57Z</time>
      </trkpt>
      <trkpt lat="50.41012" lon="4.36863">
        <ele>149.896</ele>
        <time>2020-02-03T11:06:34Z</time>
      </trkpt>
      <trkpt lat="50.41088" lon="4.36782">
        <ele>149.447</ele>
        <time>2020-02-03T11:08:16Z</time>
      </trkpt>
      <trkpt lat="50.41215" lon="4.3686">
        <ele>145.029</ele>
        <time>2020-02-03T11:10:12Z</time>
      </trkpt>
      <trkpt lat="50.4132" lon="4.36883">
        <ele>141.021</ele>
        <time>2020-02-03T11:11:43Z</time>
      </trkpt>
      <trkpt lat="50.41453" lon="4.36889">
        <ele>138.608</ele>
        <time>2020-02-03T11:13:25Z</time>
      </trkpt>
      <trkpt lat="50.4158" lon="4.36878">
        <ele>140.838</ele>
        <time>2020-02-03T11:15:04Z</time>
      </trkpt>
      <trkpt lat="50.41689" lon="4.36866">
        <ele>144.073</ele>
        <time>2020-02-03T11:16:36Z</time>
      </trkpt>
      <trkpt lat="50.41822" lon="4.36861">
        <ele>146.46</ele>
        <time>2020-02-03T11:18:21Z</time>
      </trkpt>
      <trkpt lat="50.4195" lon="4.36871">
        <ele>139.191</ele>
        <time>2020-02-03T11:20:04Z</time>
      </trkpt>
      <trkpt lat="50.4205" lon="4.3692">
        <ele>136.245</ele>
        <time>2020-02-03T11:21:42Z</time>
      </trkpt>
      <trkpt lat="50.41984" lon="4.37019">
        <ele>139.533</ele>
        <time>2020-02-03T11:23:02Z</time>
      </trkpt>
      <trkpt lat="50.4191" lon="4.37119">
        <ele>145.431</ele>
        <time>2020-02-03T11:24:24Z</time>
      </trkpt>
      <trkpt lat="50.41953" lon="4.37242">
        <ele>141.334</ele>
        <time>2020-02-03T11:25:51Z</time>
      </trkpt>
      <trkpt lat="50.42014" lon="4.37367">
        <ele>139.868</ele>
        <time>2020-02-03T11:27:13Z</time>
      </trkpt>
      <trkpt lat="50.42044" lon="4.37506">
        <ele>137.442</ele>
        <time>2020-02-03T11:28:41Z</time>
      </trkpt>
      <trkpt lat="50.42074" lon="4.37673">
        <ele>137.326</ele>
        <time>2020-02-03T11:30:30Z</time>
      </trkpt>
      <trkpt lat="50.42132" lon="4.37795">
        <ele>134.008</ele>
        <time>2020-02-03T11:31:59Z</time>
      </trkpt>
      <trkpt lat="50.42204" lon="4.37926">
        <ele>130.42</ele>
        <time>2020-02-03T11:33:33Z</time>
      </trkpt>
      <trkpt lat="50.42282" lon="4.38023">
        <ele>127.295</ele>
        <time>2020-02-03T11:34:59Z</time>
      </trkpt>
      <trkpt lat="50.42359" lon="4.38116">
        <ele>123.332</ele>
        <time>2020-02-03T11:36:21Z</time>
      </trkpt>
      <trkpt lat="50.42444" lon="4.38173">
        <ele>118.883</ele>
        <time>2020-02-03T11:37:46Z</time>
      </trkpt>
      <trkpt lat="50.42501" lon="4.38296">
        <ele>117.027</ele>
        <time>2020-02-03T11:39:22Z</time>
      </trkpt>
      <trkpt lat="50.42534" lon="4.38439">
        <ele>115.785</ele>
        <time>2020-02-03T11:40:44Z</time>
      </trkpt>
      <trkpt lat="50.42582" lon="4.38586">
        <ele>113.143</ele>
        <time>2020-02-03T11:42:25Z</time>
      </trkpt>
      <trkpt lat="50.42665" lon="4.38552">
        <ele>112.836</ele>
        <time>2020-02-03T11:43:47Z</time>
      </trkpt>
      <trkpt lat="50.4276" lon="4.38622">
        <ele>117.867</ele>
        <time>2020-02-03T11:45:31Z</time>
      </trkpt>
      <trkpt lat="50.42913" lon="4.38703">
        <ele>113.881</ele>
        <time>2020-02-03T11:47:33Z</time>
      </trkpt>
      <trkpt lat="50.43005" lon="4.38727">
        <ele>109.519</ele>
        <time>2020-02-03T11:48:51Z</time>
      </trkpt>
      <trkpt lat="50.42998" lon="4.38649">
        <ele>112.008</ele>
        <time>2020-02-03T11:50:48Z</time>
      </trkpt>
      <trkpt lat="50.42953" lon="4.38662">
        <ele>111.46</ele>
        <time>2020-07-26T02:55:32Z</time>
      </trkpt>
      <trkpt lat="50.42924" lon="4.38486">
        <ele>121.055</ele>
        <time>2020-02-03T11:52:53Z</time>
      </trkpt>
      <trkpt lat="50.42892" lon="4.3841">
        <ele>124.772</ele>
        <time>2020-07-26T02:56:52Z</time>
      </trkpt>
      <trkpt lat="50.42918" lon="4.38292">
        <ele>128.983</ele>
        <time>2020-02-03T11:54:48Z</time>
      </trkpt>
      <trkpt lat="50.42942" lon="4.38116">
        <ele>126.267</ele>
        <time>2020-02-03T11:57:26Z</time>
      </trkpt>
      <trkpt lat="50.42978" lon="4.37917">
        <ele>121.895</ele>
        <time>2020-02-03T11:59:29Z</time>
      </trkpt>
      <trkpt lat="50.43046" lon="4.37803">
        <ele>128.393</ele>
        <time>2020-02-03T12:02:41Z</time>
      </trkpt>
      <trkpt lat="50.43077" lon="4.37716">
        <ele>133.266</ele>
        <time>2020-02-03T12:05:20Z</time>
      </trkpt>
      <trkpt lat="50.43216" lon="4.37583">
        <ele>149.226</ele>
        <time>2020-02-03T12:08:41Z</time>
      </trkpt>
      <trkpt lat="50.4333" lon="4.37721">
        <ele>151.047</ele>
        <time>2020-02-03T12:10:59Z</time>
      </trkpt>
      <trkpt lat="50.43362" lon="4.37948">
        <ele>161.911</ele>
        <time>2020-02-03T12:13:04Z</time>
      </trkpt>
      <trkpt lat="50.43265" lon="4.37929">
        <ele>183.208</ele>
        <time>2020-02-03T12:15:55Z</time>
      </trkpt>
      <trkpt lat="50.43199" lon="4.37706">
        <ele>170.936</ele>
        <time>2020-02-03T12:18:29Z</time>
      </trkpt>
      <trkpt lat="50.4317" lon="4.3799">
        <ele>178.711</ele>
        <time>2020-02-03T12:20:59Z</time>
      </trkpt>
      <trkpt lat="50.43227" lon="4.3817">
        <ele>175.658</ele>
        <time>2020-02-03T12:23:01Z</time>
      </trkpt>
      <trkpt lat="50.43301" lon="4.38219">
        <ele>154.679</ele>
        <time>2020-02-03T12:26:13Z</time>
      </trkpt>
      <trkpt lat="50.4315" lon="4.38257">
        <ele>146.193</ele>
        <time>2020-02-03T12:30:42Z</time>
      </trkpt>
      <trkpt lat="50.43254" lon="4.38402">
        <ele>138.911</ele>
        <time>2020-02-03T12:33:18Z</time>
      </trkpt>
      <trkpt lat="50.43366" lon="4.38234">
        <ele>145.559</ele>
        <time>2020-02-03T12:36:08Z</time>
      </trkpt>
      <trkpt lat="50.43484" lon="4.38163">
        <ele>131.672</ele>
        <time>2020-02-03T12:38:52Z</time>
      </trkpt>
      <trkpt lat="50.4354" lon="4.38266">
        <ele>123.731</ele>
        <time>2020-02-03T12:40:23Z</time>
      </trkpt>
      <trkpt lat="50.43593" lon="4.38413">
        <ele>126.061</ele>
        <time>2020-02-03T12:42:06Z</time>
      </trkpt>
      <trkpt lat="50.43655" lon="4.38628">
        <ele>115.907</ele>
        <time>2020-02-03T12:43:48Z</time>
      </trkpt>
      <trkpt lat="50.43737" lon="4.38602">
        <ele>111.708</ele>
        <time>2020-02-03T12:45:22Z</time>
      </trkpt>
      <trkpt lat="50.43817" lon="4.38624">
        <ele>114.937</ele>
        <time>2020-02-03T12:47:01Z</time>
      </trkpt>
      <trkpt lat="50.43805" lon="4.3898">
        <ele>113.032</ele>
        <time>2020-02-03T12:50:05Z</time>
      </trkpt>
      <trkpt lat="50.43804" lon="4.39331">
        <ele>111.219</ele>
        <time>2020-02-03T12:54:02Z</time>
      </trkpt>
      <trkpt lat="50.43732" lon="4.39327">
        <ele>111.78</ele>
        <time>2020-02-03T12:56:54Z</time>
      </trkpt>
      <trkpt lat="50.43596" lon="4.39304">
        <ele>109.654</ele>
        <time>2020-02-03T12:58:01Z</time>
      </trkpt>
      <trkpt lat="50.43587" lon="4.3938">
        <ele>108.412</ele>
        <time>2020-02-03T13:00:33Z</time>
      </trkpt>
      <trkpt lat="50.43577" lon="4.39445">
        <ele>110.76</ele>
        <time>2020-07-26T03:15:32Z</time>
      </trkpt>
      <trkpt lat="50.43528" lon="4.39437">
        <ele>105.393</ele>
        <time>2020-02-03T13:02:46Z</time>
      </trkpt>
      <trkpt lat="50.43427" lon="4.39383">
        <ele>105.813</ele>
        <time>2020-02-03T13:04:37Z</time>
      </trkpt>
      <trkpt lat="50.43332" lon="4.39339">
        <ele>113.043</ele>
        <time>2020-02-03T13:06:05Z</time>
      </trkpt>
      <trkpt lat="50.43233" lon="4.39323">
        <ele>108.607</ele>
        <time>2020-02-03T13:07:32Z</time>
      </trkpt>
      <trkpt lat="50.43141" lon="4.39328">
        <ele>111.008</ele>
        <time>2020-02-03T13:08:49Z</time>
      </trkpt>
      <trkpt lat="50.43047" lon="4.3934">
        <ele>111.535</ele>
        <time>2020-02-03T13:10:08Z</time>
      </trkpt>
      <trkpt lat="50.42951" lon="4.3935">
        <ele>106.78</ele>
        <time>2020-02-03T13:11:31Z</time>
      </trkpt>
      <trkpt lat="50.42857" lon="4.39362">
        <ele>108.097</ele>
        <time>2020-02-03T13:12:52Z</time>
      </trkpt>
      <trkpt lat="50.42765" lon="4.39373">
        <ele>108.448</ele>
        <time>2020-02-03T13:14:14Z</time>
      </trkpt>
      <trkpt lat="50.42674" lon="4.39387">
        <ele>104.182</ele>
        <time>2020-02-03T13:15:31Z</time>
      </trkpt>
      <trkpt lat="50.4259" lon="4.39423">
        <ele>107.62</ele>
        <time>2020-02-03T13:17:50Z</time>
      </trkpt>
      <trkpt lat="50.42498" lon="4.39475">
        <ele>105.168</ele>
        <time>2020-02-03T13:19:19Z</time>
      </trkpt>
      <trkpt lat="50.42411" lon="4.39523">
        <ele>105.481</ele>
        <time>2020-02-03T13:21:32Z</time>
      </trkpt>
      <trkpt lat="50.42294" lon="4.3955">
        <ele>109.512</ele>
        <time>2020-02-03T13:23:07Z</time>
      </trkpt>
      <trkpt lat="50.42289" lon="4.39677">
        <ele>103.732</ele>
        <time>2020-02-03T13:24:32Z</time>
      </trkpt>
      <trkpt lat="50.42319" lon="4.39811">
        <ele>116.005</ele>
        <time>2020-02-03T13:28:47Z</time>
      </trkpt>
      <trkpt lat="50.42361" lon="4.39861">
        <ele>125.008</ele>
        <time>2020-02-03T13:31:03Z</time>
      </trkpt>
      <trkpt lat="50.42264" lon="4.39893">
        <ele>126.695</ele>
        <time>2020-02-03T13:34:19Z</time>
      </trkpt>
      <trkpt lat="50.42176" lon="4.39959">
        <ele>123.72</ele>
        <time>2020-02-03T13:35:56Z</time>
      </trkpt>
      <trkpt lat="50.42098" lon="4.40044">
        <ele>130.337</ele>
        <time>2020-02-03T13:37:25Z</time>
      </trkpt>
      <trkpt lat="50.42027" lon="4.40119">
        <ele>131.588</ele>
        <time>2020-02-03T13:39:29Z</time>
      </trkpt>
      <trkpt lat="50.42036" lon="4.40282">
        <ele>135.562</ele>
        <time>2020-02-03T13:41:58Z</time>
      </trkpt>
      <trkpt lat="50.42061" lon="4.40442">
        <ele>127.77</ele>
        <time>2020-02-03T13:43:24Z</time>
      </trkpt>
      <trkpt lat="50.4202" lon="4.40474">
        <ele>135.558</ele>
        <time>2020-02-03T13:45:34Z</time>
      </trkpt>
      <trkpt lat="50.41954" lon="4.40382">
        <ele>143.481</ele>
        <time>2020-02-03T13:47:59Z</time>
      </trkpt>
      <trkpt lat="50.41882" lon="4.40444">
        <ele>134.254</ele>
        <time>2020-02-03T13:50:01Z</time>
      </trkpt>
      <trkpt lat="50.41867" lon="4.40569">
        <ele>127.356</ele>
        <time>2020-02-03T13:53:12Z</time>
      </trkpt>
      <trkpt lat="50.41892" lon="4.40701">
        <ele>121.911</ele>
        <time>2020-02-03T13:55:21Z</time>
      </trkpt>
      <trkpt lat="50.41934" lon="4.40824">
        <ele>120.408</ele>
        <time>2020-02-03T13:56:46Z</time>
      </trkpt>
      <trkpt lat="50.41968" lon="4.40944">
        <ele>142.829</ele>
        <time>2020-02-03T13:58:30Z</time>
      </trkpt>
      <trkpt lat="50.41975" lon="4.41051">
        <ele>129.664</ele>
        <time>2020-02-03T14:00:59Z</time>
      </trkpt>
      <trkpt lat="50.4196" lon="4.41126">
        <ele>113.681</ele>
        <time>2020-02-03T14:02:49Z</time>
      </trkpt>
      <trkpt lat="50.41972" lon="4.41225">
        <ele>116.092</ele>
        <time>2020-02-03T14:04:27Z</time>
      </trkpt>
      <trkpt lat="50.41976" lon="4.41357">
        <ele>112.116</ele>
        <time>2020-02-03T14:06:16Z</time>
      </trkpt>
      <trkpt lat="50.41892" lon="4.41368">
        <ele>108.074</ele>
        <time>2020-02-03T14:10:26Z</time>
      </trkpt>
      <trkpt lat="50.4186" lon="4.41496">
        <ele>112.732</ele>
        <time>2020-02-03T14:11:53Z</time>
      </trkpt>
      <trkpt lat="50.41827" lon="4.41584">
        <ele>108.085</ele>
        <time>2020-02-03T14:14:07Z</time>
      </trkpt>
      <trkpt lat="50.41748" lon="4.41658">
        <ele>108.494</ele>
        <time>2020-02-03T14:15:32Z</time>
      </trkpt>
      <trkpt lat="50.41732" lon="4.4178">
        <ele>121.857</ele>
        <time>2020-02-03T14:18:35Z</time>
      </trkpt>
      <trkpt lat="50.4181" lon="4.41827">
        <ele>121.622</ele>
        <time>2020-02-03T14:21:04Z</time>
      </trkpt>
      <trkpt lat="50.41888" lon="4.41886">
        <ele>117.108</ele>
        <time>2020-02-03T14:23:09Z</time>
      </trkpt>
      <trkpt lat="50.4187" lon="4.42024">
        <ele>109.053</ele>
        <time>2020-02-03T14:24:36Z</time>
      </trkpt>
      <trkpt lat="50.41769" lon="4.42028">
        <ele>112.568</ele>
        <time>2020-02-03T14:26:54Z</time>
      </trkpt>
      <trkpt lat="50.41748" lon="4.4212">
        <ele>110.655</ele>
        <time>2020-02-03T14:29:14Z</time>
      </trkpt>
      <trkpt lat="50.41682" lon="4.42244">
        <ele>107.646</ele>
        <time>2020-02-03T14:31:09Z</time>
      </trkpt>
      <trkpt lat="50.4164" lon="4.42385">
        <ele>110.65</ele>
        <time>2020-02-03T14:32:37Z</time>
      </trkpt>
      <trkpt lat="50.41616" lon="4.42517">
        <ele>109.668</ele>
        <time>2020-02-03T14:33:58Z</time>
      </trkpt>
      <trkpt lat="50.41627" lon="4.42674">
        <ele>116.046</ele>
        <time>2020-02-03T14:35:36Z</time>
      </trkpt>
      <trkpt lat="50.41683" lon="4.42808">
        <ele>113.369</ele>
        <time>2020-02-03T14:37:09Z</time>
      </trkpt>
      <trkpt lat="50.4171" lon="4.42936">
        <ele>115.383</ele>
        <time>2020-02-03T14:38:36Z</time>
      </trkpt>
      <trkpt lat="50.41713" lon="4.4309">
        <ele>118.325</ele>
        <time>2020-02-03T14:40:07Z</time>
      </trkpt>
      <trkpt lat="50.41699" lon="4.43229">
        <ele>121.117</ele>
        <time>2020-02-03T14:43:03Z</time>
      </trkpt>
      <trkpt lat="50.41673" lon="4.43394">
        <ele>126.408</ele>
        <time>2020-02-03T14:45:02Z</time>
      </trkpt>
      <trkpt lat="50.41584" lon="4.43477">
        <ele>138.262</ele>
        <time>2020-02-03T14:47:23Z</time>
      </trkpt>
      <trkpt lat="50.41442" lon="4.43473">
        <ele>137.557</ele>
        <time>2020-02-03T14:50:26Z</time>
      </trkpt>
      <trkpt lat="50.41361" lon="4.43383">
        <ele>126.314</ele>
        <time>2020-02-03T14:53:11Z</time>
      </trkpt>
      <trkpt lat="50.41301" lon="4.43514">
        <ele>114.155</ele>
        <time>2020-02-03T14:56:46Z</time>
      </trkpt>
      <trkpt lat="50.41245" lon="4.43584">
        <ele>113.569</ele>
        <time>2020-02-03T15:00:03Z</time>
      </trkpt>
      <trkpt lat="50.41176" lon="4.4373">
        <ele>109.697</ele>
        <time>2020-02-03T15:01:30Z</time>
      </trkpt>
      <trkpt lat="50.41085" lon="4.43734">
        <ele>107.915</ele>
        <time>2020-02-03T15:03:00Z</time>
      </trkpt>
      <trkpt lat="50.40988" lon="4.43758">
        <ele>106.878</ele>
        <time>2020-02-03T15:04:42Z</time>
      </trkpt>
      <trkpt lat="50.40908" lon="4.43697">
        <ele>103.746</ele>
        <time>2020-02-03T15:06:11Z</time>
      </trkpt>
      <trkpt lat="50.40799" lon="4.4364">
        <ele>102.388</ele>
        <time>2020-02-03T15:08:38Z</time>
      </trkpt>
      <trkpt lat="50.40673" lon="4.43582">
        <ele>103.316</ele>
        <time>2020-02-03T15:10:17Z</time>
      </trkpt>
    </trkseg>
  </trk>
</gpx>